sensor_id;sensor_type;location;lat;lon;timestamp;P1;durP1;ratioP1;P2;durP2;ratioP2
40164;SDS011;25882;51.120;17.248;2022-08-19T00:01:33;9.68;;;7.35;;
40164;SDS011;25882;51.120;17.248;2022-08-19T00:04:02;10.35;;;7.78;;
40164;SDS011;25882;51.120;17.248;2022-08-19T00:06:30;10.23;;;7.60;;
40164;SDS011;25882;51.120;17.248;2022-08-19T00:08:57;10.73;;;7.40;;
40164;SDS011;25882;51.120;17.248;2022-08-19T00:11:25;8.65;;;7.47;;
40164;SDS011;25882;51.120;17.248;2022-08-19T00:13:52;10.82;;;7.25;;
40164;SDS011;25882;51.120;17.248;2022-08-19T00:16:19;11.32;;;8.18;;
40164;SDS011;25882;51.120;17.248;2022-08-19T00:18:46;10.95;;;7.95;;
40164;SDS011;25882;51.120;17.248;2022-08-19T00:21:13;10.50;;;7.25;;
40164;SDS011;25882;51.120;17.248;2022-08-19T00:23:39;10.45;;;8.38;;
40164;SDS011;25882;51.120;17.248;2022-08-19T00:26:06;9.82;;;7.68;;
40164;SDS011;25882;51.120;17.248;2022-08-19T00:28:34;8.43;;;7.55;;
40164;SDS011;25882;51.120;17.248;2022-08-19T00:31:01;11.18;;;7.53;;
40164;SDS011;25882;51.120;17.248;2022-08-19T00:33:28;11.82;;;7.90;;
40164;SDS011;25882;51.120;17.248;2022-08-19T00:35:57;9.73;;;8.57;;
40164;SDS011;25882;51.120;17.248;2022-08-19T00:38:23;11.00;;;7.85;;
40164;SDS011;25882;51.120;17.248;2022-08-19T00:40:50;10.25;;;8.00;;
40164;SDS011;25882;51.120;17.248;2022-08-19T00:43:18;10.80;;;7.85;;
40164;SDS011;25882;51.120;17.248;2022-08-19T00:45:46;9.55;;;7.70;;
40164;SDS011;25882;51.120;17.248;2022-08-19T00:48:13;10.25;;;8.25;;
40164;SDS011;25882;51.120;17.248;2022-08-19T00:50:42;10.90;;;8.80;;
40164;SDS011;25882;51.120;17.248;2022-08-19T00:53:09;17.58;;;9.73;;
40164;SDS011;25882;51.120;17.248;2022-08-19T00:55:36;10.63;;;7.82;;
40164;SDS011;25882;51.120;17.248;2022-08-19T00:58:04;9.23;;;8.13;;
40164;SDS011;25882;51.120;17.248;2022-08-19T01:00:32;10.73;;;7.78;;
40164;SDS011;25882;51.120;17.248;2022-08-19T01:03:04;12.20;;;9.95;;
40164;SDS011;25882;51.120;17.248;2022-08-19T01:05:30;9.70;;;7.90;;
40164;SDS011;25882;51.120;17.248;2022-08-19T01:07:58;16.95;;;9.95;;
40164;SDS011;25882;51.120;17.248;2022-08-19T01:10:26;22.13;;;9.75;;
40164;SDS011;25882;51.120;17.248;2022-08-19T01:12:54;12.43;;;8.60;;
40164;SDS011;25882;51.120;17.248;2022-08-19T01:15:21;15.32;;;9.57;;
40164;SDS011;25882;51.120;17.248;2022-08-19T01:17:50;10.77;;;8.05;;
40164;SDS011;25882;51.120;17.248;2022-08-19T01:20:19;12.30;;;8.25;;
40164;SDS011;25882;51.120;17.248;2022-08-19T01:22:49;9.05;;;7.57;;
40164;SDS011;25882;51.120;17.248;2022-08-19T01:25:20;15.73;;;8.23;;
40164;SDS011;25882;51.120;17.248;2022-08-19T01:27:49;9.85;;;7.78;;
40164;SDS011;25882;51.120;17.248;2022-08-19T01:30:16;14.95;;;8.82;;
40164;SDS011;25882;51.120;17.248;2022-08-19T01:32:44;9.15;;;7.82;;
40164;SDS011;25882;51.120;17.248;2022-08-19T01:35:11;10.65;;;8.20;;
40164;SDS011;25882;51.120;17.248;2022-08-19T01:37:42;11.73;;;8.77;;
40164;SDS011;25882;51.120;17.248;2022-08-19T01:40:11;10.38;;;8.18;;
40164;SDS011;25882;51.120;17.248;2022-08-19T01:42:38;8.65;;;7.60;;
40164;SDS011;25882;51.120;17.248;2022-08-19T01:45:04;11.15;;;8.38;;
40164;SDS011;25882;51.120;17.248;2022-08-19T01:47:33;11.77;;;7.78;;
40164;SDS011;25882;51.120;17.248;2022-08-19T01:49:59;12.02;;;8.27;;
40164;SDS011;25882;51.120;17.248;2022-08-19T01:52:26;13.80;;;9.07;;
40164;SDS011;25882;51.120;17.248;2022-08-19T01:54:53;10.50;;;8.25;;
40164;SDS011;25882;51.120;17.248;2022-08-19T01:57:20;11.07;;;8.10;;
40164;SDS011;25882;51.120;17.248;2022-08-19T01:59:47;10.32;;;8.50;;
40164;SDS011;25882;51.120;17.248;2022-08-19T02:02:13;10.52;;;7.95;;
40164;SDS011;25882;51.120;17.248;2022-08-19T02:04:39;10.02;;;8.27;;
40164;SDS011;25882;51.120;17.248;2022-08-19T02:07:05;9.00;;;8.05;;
40164;SDS011;25882;51.120;17.248;2022-08-19T02:09:33;10.85;;;8.60;;
40164;SDS011;25882;51.120;17.248;2022-08-19T02:11:59;10.63;;;8.18;;
40164;SDS011;25882;51.120;17.248;2022-08-19T02:14:27;10.65;;;8.77;;
40164;SDS011;25882;51.120;17.248;2022-08-19T02:16:53;11.93;;;8.20;;
40164;SDS011;25882;51.120;17.248;2022-08-19T02:19:20;12.15;;;8.93;;
40164;SDS011;25882;51.120;17.248;2022-08-19T02:21:45;12.07;;;8.73;;
40164;SDS011;25882;51.120;17.248;2022-08-19T02:24:12;11.93;;;8.43;;
40164;SDS011;25882;51.120;17.248;2022-08-19T02:26:38;9.68;;;8.68;;
40164;SDS011;25882;51.120;17.248;2022-08-19T02:29:04;11.55;;;8.85;;
40164;SDS011;25882;51.120;17.248;2022-08-19T02:31:32;10.10;;;8.55;;
40164;SDS011;25882;51.120;17.248;2022-08-19T02:33:58;10.70;;;8.75;;
40164;SDS011;25882;51.120;17.248;2022-08-19T02:36:25;12.80;;;8.98;;
40164;SDS011;25882;51.120;17.248;2022-08-19T02:38:52;12.88;;;9.40;;
40164;SDS011;25882;51.120;17.248;2022-08-19T02:41:19;14.27;;;9.70;;
40164;SDS011;25882;51.120;17.248;2022-08-19T02:43:47;11.80;;;9.18;;
40164;SDS011;25882;51.120;17.248;2022-08-19T02:46:14;14.32;;;10.73;;
40164;SDS011;25882;51.120;17.248;2022-08-19T02:48:44;10.13;;;9.13;;
40164;SDS011;25882;51.120;17.248;2022-08-19T02:51:15;12.90;;;9.10;;
40164;SDS011;25882;51.120;17.248;2022-08-19T02:53:42;12.82;;;9.27;;
40164;SDS011;25882;51.120;17.248;2022-08-19T02:56:08;12.98;;;10.23;;
40164;SDS011;25882;51.120;17.248;2022-08-19T02:58:34;12.10;;;9.27;;
40164;SDS011;25882;51.120;17.248;2022-08-19T03:01:01;13.15;;;9.98;;
40164;SDS011;25882;51.120;17.248;2022-08-19T03:03:27;12.43;;;9.43;;
40164;SDS011;25882;51.120;17.248;2022-08-19T03:06:04;14.60;;;9.65;;
40164;SDS011;25882;51.120;17.248;2022-08-19T03:08:31;15.07;;;9.95;;
40164;SDS011;25882;51.120;17.248;2022-08-19T03:10:58;18.52;;;11.30;;
40164;SDS011;25882;51.120;17.248;2022-08-19T03:13:24;12.70;;;9.65;;
40164;SDS011;25882;51.120;17.248;2022-08-19T03:15:51;17.77;;;10.10;;
40164;SDS011;25882;51.120;17.248;2022-08-19T03:18:17;12.45;;;9.70;;
40164;SDS011;25882;51.120;17.248;2022-08-19T03:20:43;12.48;;;9.55;;
40164;SDS011;25882;51.120;17.248;2022-08-19T03:23:12;18.77;;;10.88;;
40164;SDS011;25882;51.120;17.248;2022-08-19T03:25:39;14.30;;;10.60;;
40164;SDS011;25882;51.120;17.248;2022-08-19T03:28:08;12.50;;;10.30;;
40164;SDS011;25882;51.120;17.248;2022-08-19T03:30:35;14.20;;;10.15;;
40164;SDS011;25882;51.120;17.248;2022-08-19T03:33:01;19.45;;;10.20;;
40164;SDS011;25882;51.120;17.248;2022-08-19T03:35:28;16.52;;;10.77;;
40164;SDS011;25882;51.120;17.248;2022-08-19T03:37:54;13.80;;;11.05;;
40164;SDS011;25882;51.120;17.248;2022-08-19T03:40:23;24.23;;;11.80;;
40164;SDS011;25882;51.120;17.248;2022-08-19T03:42:49;13.00;;;10.48;;
40164;SDS011;25882;51.120;17.248;2022-08-19T03:45:15;12.55;;;10.20;;
40164;SDS011;25882;51.120;17.248;2022-08-19T03:47:42;17.42;;;11.57;;
40164;SDS011;25882;51.120;17.248;2022-08-19T03:50:08;16.90;;;11.60;;
40164;SDS011;25882;51.120;17.248;2022-08-19T03:52:35;15.00;;;10.98;;
40164;SDS011;25882;51.120;17.248;2022-08-19T03:55:01;17.15;;;11.70;;
40164;SDS011;25882;51.120;17.248;2022-08-19T03:57:29;15.07;;;10.90;;
40164;SDS011;25882;51.120;17.248;2022-08-19T03:59:55;14.90;;;11.70;;
40164;SDS011;25882;51.120;17.248;2022-08-19T04:02:21;12.63;;;11.20;;
40164;SDS011;25882;51.120;17.248;2022-08-19T04:04:48;13.43;;;11.10;;
40164;SDS011;25882;51.120;17.248;2022-08-19T04:07:14;17.77;;;11.02;;
40164;SDS011;25882;51.120;17.248;2022-08-19T04:09:41;14.88;;;11.50;;
40164;SDS011;25882;51.120;17.248;2022-08-19T04:12:08;16.63;;;11.80;;
40164;SDS011;25882;51.120;17.248;2022-08-19T04:14:36;14.57;;;11.20;;
40164;SDS011;25882;51.120;17.248;2022-08-19T04:17:03;17.08;;;11.70;;
40164;SDS011;25882;51.120;17.248;2022-08-19T04:19:30;14.07;;;10.93;;
40164;SDS011;25882;51.120;17.248;2022-08-19T04:21:57;15.23;;;12.00;;
40164;SDS011;25882;51.120;17.248;2022-08-19T04:24:24;15.80;;;11.25;;
40164;SDS011;25882;51.120;17.248;2022-08-19T04:26:50;13.88;;;10.88;;
40164;SDS011;25882;51.120;17.248;2022-08-19T04:29:17;15.68;;;10.95;;
40164;SDS011;25882;51.120;17.248;2022-08-19T04:31:49;14.43;;;10.88;;
40164;SDS011;25882;51.120;17.248;2022-08-19T04:34:16;13.80;;;10.50;;
40164;SDS011;25882;51.120;17.248;2022-08-19T04:36:48;14.38;;;11.88;;
40164;SDS011;25882;51.120;17.248;2022-08-19T04:39:17;14.73;;;12.07;;
40164;SDS011;25882;51.120;17.248;2022-08-19T04:41:43;17.10;;;11.35;;
40164;SDS011;25882;51.120;17.248;2022-08-19T04:44:29;15.60;;;11.32;;
40164;SDS011;25882;51.120;17.248;2022-08-19T04:46:57;13.77;;;11.10;;
40164;SDS011;25882;51.120;17.248;2022-08-19T04:49:24;16.55;;;11.32;;
40164;SDS011;25882;51.120;17.248;2022-08-19T04:51:52;16.05;;;11.88;;
40164;SDS011;25882;51.120;17.248;2022-08-19T04:54:23;15.02;;;11.88;;
40164;SDS011;25882;51.120;17.248;2022-08-19T04:56:50;14.88;;;11.07;;
40164;SDS011;25882;51.120;17.248;2022-08-19T04:59:18;14.82;;;11.55;;
40164;SDS011;25882;51.120;17.248;2022-08-19T05:01:46;17.95;;;12.20;;
40164;SDS011;25882;51.120;17.248;2022-08-19T05:04:17;14.48;;;12.27;;
40164;SDS011;25882;51.120;17.248;2022-08-19T05:06:47;15.38;;;11.65;;
40164;SDS011;25882;51.120;17.248;2022-08-19T05:09:14;15.63;;;12.20;;
40164;SDS011;25882;51.120;17.248;2022-08-19T05:11:44;15.02;;;12.38;;
40164;SDS011;25882;51.120;17.248;2022-08-19T05:14:19;15.70;;;11.95;;
40164;SDS011;25882;51.120;17.248;2022-08-19T05:16:47;18.85;;;12.25;;
40164;SDS011;25882;51.120;17.248;2022-08-19T05:19:18;16.83;;;13.13;;
40164;SDS011;25882;51.120;17.248;2022-08-19T05:22:09;19.70;;;11.73;;
40164;SDS011;25882;51.120;17.248;2022-08-19T05:24:54;17.13;;;12.23;;
40164;SDS011;25882;51.120;17.248;2022-08-19T05:27:21;16.73;;;13.00;;
40164;SDS011;25882;51.120;17.248;2022-08-19T05:29:47;17.25;;;12.27;;
40164;SDS011;25882;51.120;17.248;2022-08-19T05:32:14;17.52;;;11.75;;
40164;SDS011;25882;51.120;17.248;2022-08-19T05:34:42;19.83;;;12.23;;
40164;SDS011;25882;51.120;17.248;2022-08-19T05:37:08;16.65;;;12.10;;
40164;SDS011;25882;51.120;17.248;2022-08-19T05:39:39;18.02;;;12.55;;
40164;SDS011;25882;51.120;17.248;2022-08-19T05:42:12;16.50;;;12.18;;
40164;SDS011;25882;51.120;17.248;2022-08-19T05:44:41;17.65;;;11.60;;
40164;SDS011;25882;51.120;17.248;2022-08-19T05:47:11;19.20;;;12.32;;
40164;SDS011;25882;51.120;17.248;2022-08-19T05:55:05;19.38;;;11.90;;
40164;SDS011;25882;51.120;17.248;2022-08-19T05:57:32;17.45;;;12.93;;
40164;SDS011;25882;51.120;17.248;2022-08-19T05:59:59;19.20;;;12.23;;
40164;SDS011;25882;51.120;17.248;2022-08-19T06:02:27;14.82;;;11.23;;
40164;SDS011;25882;51.120;17.248;2022-08-19T06:04:55;19.85;;;12.55;;
40164;SDS011;25882;51.120;17.248;2022-08-19T06:07:23;18.02;;;12.27;;
40164;SDS011;25882;51.120;17.248;2022-08-19T06:09:50;15.75;;;11.90;;
40164;SDS011;25882;51.120;17.248;2022-08-19T06:12:16;17.85;;;12.68;;
40164;SDS011;25882;51.120;17.248;2022-08-19T06:14:42;16.85;;;11.80;;
40164;SDS011;25882;51.120;17.248;2022-08-19T06:17:09;16.88;;;11.82;;
40164;SDS011;25882;51.120;17.248;2022-08-19T06:19:35;16.65;;;11.85;;
40164;SDS011;25882;51.120;17.248;2022-08-19T06:22:03;17.58;;;12.52;;
40164;SDS011;25882;51.120;17.248;2022-08-19T06:24:31;17.27;;;11.77;;
40164;SDS011;25882;51.120;17.248;2022-08-19T06:26:57;15.70;;;11.63;;
40164;SDS011;25882;51.120;17.248;2022-08-19T06:29:25;17.48;;;12.50;;
40164;SDS011;25882;51.120;17.248;2022-08-19T06:31:53;15.25;;;11.73;;
40164;SDS011;25882;51.120;17.248;2022-08-19T06:34:21;16.73;;;11.57;;
40164;SDS011;25882;51.120;17.248;2022-08-19T06:36:49;13.75;;;10.95;;
40164;SDS011;25882;51.120;17.248;2022-08-19T06:39:18;16.83;;;11.90;;
40164;SDS011;25882;51.120;17.248;2022-08-19T06:41:48;14.45;;;11.65;;
40164;SDS011;25882;51.120;17.248;2022-08-19T06:44:16;15.55;;;11.68;;
40164;SDS011;25882;51.120;17.248;2022-08-19T06:46:42;14.68;;;11.48;;
40164;SDS011;25882;51.120;17.248;2022-08-19T06:49:09;15.82;;;10.95;;
40164;SDS011;25882;51.120;17.248;2022-08-19T06:51:39;14.68;;;11.50;;
40164;SDS011;25882;51.120;17.248;2022-08-19T06:54:06;14.80;;;10.95;;
40164;SDS011;25882;51.120;17.248;2022-08-19T06:56:32;14.93;;;10.60;;
40164;SDS011;25882;51.120;17.248;2022-08-19T06:59:05;16.50;;;11.20;;
40164;SDS011;25882;51.120;17.248;2022-08-19T07:01:34;14.43;;;9.45;;
40164;SDS011;25882;51.120;17.248;2022-08-19T07:06:29;16.88;;;10.43;;
40164;SDS011;25882;51.120;17.248;2022-08-19T07:08:56;12.20;;;9.60;;
40164;SDS011;25882;51.120;17.248;2022-08-19T07:11:24;10.75;;;9.50;;
40164;SDS011;25882;51.120;17.248;2022-08-19T07:13:50;12.05;;;9.23;;
40164;SDS011;25882;51.120;17.248;2022-08-19T07:16:18;13.93;;;9.55;;
40164;SDS011;25882;51.120;17.248;2022-08-19T07:18:45;14.00;;;9.45;;
40164;SDS011;25882;51.120;17.248;2022-08-19T07:21:13;16.17;;;10.85;;
40164;SDS011;25882;51.120;17.248;2022-08-19T07:23:40;13.88;;;9.95;;
40164;SDS011;25882;51.120;17.248;2022-08-19T07:26:08;15.38;;;9.90;;
40164;SDS011;25882;51.120;17.248;2022-08-19T07:28:38;21.02;;;10.60;;
40164;SDS011;25882;51.120;17.248;2022-08-19T07:31:05;13.40;;;9.48;;
40164;SDS011;25882;51.120;17.248;2022-08-19T07:33:34;15.32;;;10.38;;
40164;SDS011;25882;51.120;17.248;2022-08-19T07:36:03;11.65;;;8.68;;
40164;SDS011;25882;51.120;17.248;2022-08-19T07:38:29;13.70;;;9.13;;
40164;SDS011;25882;51.120;17.248;2022-08-19T07:40:58;11.73;;;9.75;;
40164;SDS011;25882;51.120;17.248;2022-08-19T07:43:25;14.30;;;8.75;;
40164;SDS011;25882;51.120;17.248;2022-08-19T07:45:52;11.70;;;8.10;;
40164;SDS011;25882;51.120;17.248;2022-08-19T07:48:22;11.20;;;7.68;;
40164;SDS011;25882;51.120;17.248;2022-08-19T07:50:53;10.40;;;8.63;;
40164;SDS011;25882;51.120;17.248;2022-08-19T07:53:20;11.98;;;7.50;;
40164;SDS011;25882;51.120;17.248;2022-08-19T07:55:47;9.68;;;8.60;;
40164;SDS011;25882;51.120;17.248;2022-08-19T07:58:14;13.13;;;8.52;;
40164;SDS011;25882;51.120;17.248;2022-08-19T08:00:43;10.73;;;7.70;;
40164;SDS011;25882;51.120;17.248;2022-08-19T08:03:11;10.15;;;8.43;;
40164;SDS011;25882;51.120;17.248;2022-08-19T08:05:38;14.57;;;8.73;;
40164;SDS011;25882;51.120;17.248;2022-08-19T08:08:25;12.45;;;7.65;;
40164;SDS011;25882;51.120;17.248;2022-08-19T08:11:01;11.70;;;8.18;;
40164;SDS011;25882;51.120;17.248;2022-08-19T08:13:28;9.60;;;7.82;;
40164;SDS011;25882;51.120;17.248;2022-08-19T08:15:54;9.30;;;7.75;;
40164;SDS011;25882;51.120;17.248;2022-08-19T08:18:20;10.15;;;7.40;;
40164;SDS011;25882;51.120;17.248;2022-08-19T08:20:47;13.13;;;7.30;;
40164;SDS011;25882;51.120;17.248;2022-08-19T08:23:20;15.05;;;7.75;;
40164;SDS011;25882;51.120;17.248;2022-08-19T08:25:52;11.43;;;7.70;;
40164;SDS011;25882;51.120;17.248;2022-08-19T08:28:21;11.90;;;7.63;;
40164;SDS011;25882;51.120;17.248;2022-08-19T08:30:48;14.75;;;8.18;;
40164;SDS011;25882;51.120;17.248;2022-08-19T08:33:17;16.30;;;8.18;;
40164;SDS011;25882;51.120;17.248;2022-08-19T08:35:44;10.55;;;7.25;;
40164;SDS011;25882;51.120;17.248;2022-08-19T08:38:11;11.65;;;8.40;;
40164;SDS011;25882;51.120;17.248;2022-08-19T08:40:39;11.77;;;8.63;;
40164;SDS011;25882;51.120;17.248;2022-08-19T08:43:13;9.55;;;7.60;;
40164;SDS011;25882;51.120;17.248;2022-08-19T08:45:49;11.27;;;7.90;;
40164;SDS011;25882;51.120;17.248;2022-08-19T08:48:22;10.18;;;7.07;;
40164;SDS011;25882;51.120;17.248;2022-08-19T08:50:50;10.55;;;7.38;;
40164;SDS011;25882;51.120;17.248;2022-08-19T08:53:18;13.68;;;7.57;;
40164;SDS011;25882;51.120;17.248;2022-08-19T08:55:45;11.88;;;7.60;;
40164;SDS011;25882;51.120;17.248;2022-08-19T08:58:15;13.93;;;7.68;;
40164;SDS011;25882;51.120;17.248;2022-08-19T09:00:46;10.07;;;7.18;;
40164;SDS011;25882;51.120;17.248;2022-08-19T09:03:16;10.60;;;6.90;;
40164;SDS011;25882;51.120;17.248;2022-08-19T09:05:45;10.40;;;6.65;;
40164;SDS011;25882;51.120;17.248;2022-08-19T09:08:38;11.43;;;7.25;;
40164;SDS011;25882;51.120;17.248;2022-08-19T09:11:07;7.35;;;6.07;;
40164;SDS011;25882;51.120;17.248;2022-08-19T09:13:39;10.38;;;6.82;;
40164;SDS011;25882;51.120;17.248;2022-08-19T09:16:12;8.27;;;6.82;;
40164;SDS011;25882;51.120;17.248;2022-08-19T09:18:40;10.05;;;6.72;;
40164;SDS011;25882;51.120;17.248;2022-08-19T09:21:08;8.60;;;5.47;;
40164;SDS011;25882;51.120;17.248;2022-08-19T09:23:34;13.65;;;7.10;;
40164;SDS011;25882;51.120;17.248;2022-08-19T09:26:01;11.55;;;6.25;;
40164;SDS011;25882;51.120;17.248;2022-08-19T09:28:28;9.40;;;5.38;;
40164;SDS011;25882;51.120;17.248;2022-08-19T09:30:56;10.23;;;6.57;;
40164;SDS011;25882;51.120;17.248;2022-08-19T09:33:22;10.13;;;7.20;;
40164;SDS011;25882;51.120;17.248;2022-08-19T09:35:49;8.85;;;5.95;;
40164;SDS011;25882;51.120;17.248;2022-08-19T09:38:15;8.23;;;5.90;;
40164;SDS011;25882;51.120;17.248;2022-08-19T09:40:41;7.72;;;6.05;;
40164;SDS011;25882;51.120;17.248;2022-08-19T09:43:07;10.18;;;6.60;;
40164;SDS011;25882;51.120;17.248;2022-08-19T09:45:36;9.40;;;6.45;;
40164;SDS011;25882;51.120;17.248;2022-08-19T09:48:04;6.75;;;6.05;;
40164;SDS011;25882;51.120;17.248;2022-08-19T09:50:31;7.80;;;5.93;;
40164;SDS011;25882;51.120;17.248;2022-08-19T09:53:01;7.63;;;6.10;;
40164;SDS011;25882;51.120;17.248;2022-08-19T09:55:27;9.10;;;5.70;;
40164;SDS011;25882;51.120;17.248;2022-08-19T09:57:53;10.85;;;6.35;;
40164;SDS011;25882;51.120;17.248;2022-08-19T10:00:20;6.55;;;5.88;;
40164;SDS011;25882;51.120;17.248;2022-08-19T10:02:46;5.95;;;4.93;;
40164;SDS011;25882;51.120;17.248;2022-08-19T10:05:14;7.38;;;4.90;;
40164;SDS011;25882;51.120;17.248;2022-08-19T10:07:59;5.53;;;4.72;;
40164;SDS011;25882;51.120;17.248;2022-08-19T10:10:27;8.18;;;5.15;;
40164;SDS011;25882;51.120;17.248;2022-08-19T10:12:53;6.95;;;4.40;;
40164;SDS011;25882;51.120;17.248;2022-08-19T10:15:21;8.45;;;4.55;;
40164;SDS011;25882;51.120;17.248;2022-08-19T10:17:47;9.90;;;4.75;;
40164;SDS011;25882;51.120;17.248;2022-08-19T10:23:57;9.30;;;4.90;;
40164;SDS011;25882;51.120;17.248;2022-08-19T10:26:26;6.05;;;4.80;;
40164;SDS011;25882;51.120;17.248;2022-08-19T10:28:54;10.20;;;4.95;;
40164;SDS011;25882;51.120;17.248;2022-08-19T10:31:22;8.07;;;5.10;;
40164;SDS011;25882;51.120;17.248;2022-08-19T10:33:50;10.02;;;4.85;;
40164;SDS011;25882;51.120;17.248;2022-08-19T10:36:23;9.73;;;5.65;;
40164;SDS011;25882;51.120;17.248;2022-08-19T10:38:51;8.50;;;4.45;;
40164;SDS011;25882;51.120;17.248;2022-08-19T10:41:22;7.07;;;4.78;;
40164;SDS011;25882;51.120;17.248;2022-08-19T10:43:50;9.32;;;5.78;;
40164;SDS011;25882;51.120;17.248;2022-08-19T10:46:18;9.27;;;4.95;;
40164;SDS011;25882;51.120;17.248;2022-08-19T10:48:44;9.95;;;4.75;;
40164;SDS011;25882;51.120;17.248;2022-08-19T10:51:10;7.60;;;5.05;;
40164;SDS011;25882;51.120;17.248;2022-08-19T10:53:56;7.78;;;5.03;;
40164;SDS011;25882;51.120;17.248;2022-08-19T10:56:25;7.60;;;5.22;;
40164;SDS011;25882;51.120;17.248;2022-08-19T10:59:10;10.68;;;4.95;;
40164;SDS011;25882;51.120;17.248;2022-08-19T11:01:38;13.07;;;5.53;;
40164;SDS011;25882;51.120;17.248;2022-08-19T11:04:04;13.00;;;4.70;;
40164;SDS011;25882;51.120;17.248;2022-08-19T11:06:34;6.63;;;5.43;;
40164;SDS011;25882;51.120;17.248;2022-08-19T11:09:00;10.13;;;5.70;;
40164;SDS011;25882;51.120;17.248;2022-08-19T11:11:28;7.28;;;4.43;;
40164;SDS011;25882;51.120;17.248;2022-08-19T11:13:54;11.68;;;4.93;;
40164;SDS011;25882;51.120;17.248;2022-08-19T11:16:21;7.68;;;5.15;;
40164;SDS011;25882;51.120;17.248;2022-08-19T11:18:49;7.63;;;4.90;;
40164;SDS011;25882;51.120;17.248;2022-08-19T11:21:18;6.95;;;5.20;;
40164;SDS011;25882;51.120;17.248;2022-08-19T11:23:46;8.10;;;4.82;;
40164;SDS011;25882;51.120;17.248;2022-08-19T11:26:13;9.13;;;4.63;;
40164;SDS011;25882;51.120;17.248;2022-08-19T11:28:41;13.73;;;6.20;;
40164;SDS011;25882;51.120;17.248;2022-08-19T11:31:11;9.18;;;4.85;;
40164;SDS011;25882;51.120;17.248;2022-08-19T11:33:38;10.15;;;5.07;;
40164;SDS011;25882;51.120;17.248;2022-08-19T11:36:04;7.07;;;4.60;;
40164;SDS011;25882;51.120;17.248;2022-08-19T11:38:32;10.88;;;5.10;;
40164;SDS011;25882;51.120;17.248;2022-08-19T11:41:00;6.13;;;4.78;;
40164;SDS011;25882;51.120;17.248;2022-08-19T11:43:28;6.38;;;4.40;;
40164;SDS011;25882;51.120;17.248;2022-08-19T11:45:56;9.60;;;4.78;;
40164;SDS011;25882;51.120;17.248;2022-08-19T11:48:23;8.02;;;4.45;;
40164;SDS011;25882;51.120;17.248;2022-08-19T11:50:49;8.00;;;5.25;;
40164;SDS011;25882;51.120;17.248;2022-08-19T11:53:16;6.68;;;5.75;;
40164;SDS011;25882;51.120;17.248;2022-08-19T11:55:43;7.93;;;4.57;;
40164;SDS011;25882;51.120;17.248;2022-08-19T11:58:10;10.70;;;4.75;;
40164;SDS011;25882;51.120;17.248;2022-08-19T12:00:37;7.70;;;4.40;;
40164;SDS011;25882;51.120;17.248;2022-08-19T12:03:05;7.68;;;3.95;;
40164;SDS011;25882;51.120;17.248;2022-08-19T12:05:31;5.95;;;3.78;;
40164;SDS011;25882;51.120;17.248;2022-08-19T12:07:57;6.28;;;3.47;;
40164;SDS011;25882;51.120;17.248;2022-08-19T12:10:24;6.03;;;3.50;;
40164;SDS011;25882;51.120;17.248;2022-08-19T12:12:50;5.75;;;3.33;;
40164;SDS011;25882;51.120;17.248;2022-08-19T12:15:17;4.88;;;2.72;;
40164;SDS011;25882;51.120;17.248;2022-08-19T12:17:43;7.03;;;3.20;;
40164;SDS011;25882;51.120;17.248;2022-08-19T12:20:12;9.43;;;3.03;;
40164;SDS011;25882;51.120;17.248;2022-08-19T12:22:41;7.07;;;3.13;;
40164;SDS011;25882;51.120;17.248;2022-08-19T12:25:08;7.38;;;2.65;;
40164;SDS011;25882;51.120;17.248;2022-08-19T12:27:35;6.93;;;3.00;;
40164;SDS011;25882;51.120;17.248;2022-08-19T12:30:01;6.95;;;3.20;;
40164;SDS011;25882;51.120;17.248;2022-08-19T12:32:28;9.07;;;2.95;;
40164;SDS011;25882;51.120;17.248;2022-08-19T12:34:55;7.47;;;3.55;;
40164;SDS011;25882;51.120;17.248;2022-08-19T12:37:22;6.15;;;3.53;;
40164;SDS011;25882;51.120;17.248;2022-08-19T12:39:49;4.85;;;3.10;;
40164;SDS011;25882;51.120;17.248;2022-08-19T12:42:15;6.78;;;3.15;;
40164;SDS011;25882;51.120;17.248;2022-08-19T12:44:42;6.32;;;3.40;;
40164;SDS011;25882;51.120;17.248;2022-08-19T12:47:09;8.15;;;3.55;;
40164;SDS011;25882;51.120;17.248;2022-08-19T12:49:37;6.82;;;3.40;;
40164;SDS011;25882;51.120;17.248;2022-08-19T12:52:04;5.75;;;3.10;;
40164;SDS011;25882;51.120;17.248;2022-08-19T12:54:31;9.00;;;3.95;;
40164;SDS011;25882;51.120;17.248;2022-08-19T12:56:58;10.52;;;3.45;;
40164;SDS011;25882;51.120;17.248;2022-08-19T12:59:25;6.25;;;3.40;;
40164;SDS011;25882;51.120;17.248;2022-08-19T13:01:51;5.85;;;3.00;;
40164;SDS011;25882;51.120;17.248;2022-08-19T13:04:17;5.28;;;3.25;;
40164;SDS011;25882;51.120;17.248;2022-08-19T13:06:44;8.52;;;3.55;;
40164;SDS011;25882;51.120;17.248;2022-08-19T13:09:10;7.13;;;2.60;;
40164;SDS011;25882;51.120;17.248;2022-08-19T13:11:38;7.43;;;2.67;;
40164;SDS011;25882;51.120;17.248;2022-08-19T13:14:04;11.57;;;3.17;;
40164;SDS011;25882;51.120;17.248;2022-08-19T13:16:30;8.25;;;2.88;;
40164;SDS011;25882;51.120;17.248;2022-08-19T13:18:57;10.52;;;2.83;;
40164;SDS011;25882;51.120;17.248;2022-08-19T13:21:24;7.70;;;3.80;;
40164;SDS011;25882;51.120;17.248;2022-08-19T13:23:52;6.13;;;2.90;;
40164;SDS011;25882;51.120;17.248;2022-08-19T13:26:19;6.25;;;2.80;;
40164;SDS011;25882;51.120;17.248;2022-08-19T13:28:47;6.22;;;2.90;;
40164;SDS011;25882;51.120;17.248;2022-08-19T13:31:32;8.15;;;3.45;;
40164;SDS011;25882;51.120;17.248;2022-08-19T13:34:24;6.22;;;2.83;;
40164;SDS011;25882;51.120;17.248;2022-08-19T13:36:52;7.13;;;2.50;;
40164;SDS011;25882;51.120;17.248;2022-08-19T13:39:19;6.55;;;2.60;;
40164;SDS011;25882;51.120;17.248;2022-08-19T13:41:46;9.77;;;2.63;;
40164;SDS011;25882;51.120;17.248;2022-08-19T13:44:15;7.20;;;2.65;;
40164;SDS011;25882;51.120;17.248;2022-08-19T13:46:43;4.25;;;2.30;;
40164;SDS011;25882;51.120;17.248;2022-08-19T13:49:10;8.95;;;2.90;;
40164;SDS011;25882;51.120;17.248;2022-08-19T13:51:38;9.43;;;2.88;;
40164;SDS011;25882;51.120;17.248;2022-08-19T13:54:05;9.30;;;2.90;;
40164;SDS011;25882;51.120;17.248;2022-08-19T13:56:31;8.68;;;3.13;;
40164;SDS011;25882;51.120;17.248;2022-08-19T13:58:58;8.43;;;2.80;;
40164;SDS011;25882;51.120;17.248;2022-08-19T14:01:25;8.60;;;2.75;;
40164;SDS011;25882;51.120;17.248;2022-08-19T14:03:52;7.68;;;2.88;;
40164;SDS011;25882;51.120;17.248;2022-08-19T14:06:18;11.05;;;3.83;;
40164;SDS011;25882;51.120;17.248;2022-08-19T14:08:45;8.85;;;3.45;;
40164;SDS011;25882;51.120;17.248;2022-08-19T14:11:11;7.07;;;3.08;;
40164;SDS011;25882;51.120;17.248;2022-08-19T14:13:38;8.90;;;3.22;;
40164;SDS011;25882;51.120;17.248;2022-08-19T14:16:06;10.48;;;3.40;;
40164;SDS011;25882;51.120;17.248;2022-08-19T14:18:35;9.63;;;3.08;;
40164;SDS011;25882;51.120;17.248;2022-08-19T14:21:01;9.02;;;3.03;;
40164;SDS011;25882;51.120;17.248;2022-08-19T14:23:30;7.90;;;3.17;;
40164;SDS011;25882;51.120;17.248;2022-08-19T14:26:02;7.53;;;3.58;;
40164;SDS011;25882;51.120;17.248;2022-08-19T14:28:29;11.60;;;3.63;;
40164;SDS011;25882;51.120;17.248;2022-08-19T14:30:56;9.30;;;4.03;;
40164;SDS011;25882;51.120;17.248;2022-08-19T14:33:22;11.27;;;4.40;;
40164;SDS011;25882;51.120;17.248;2022-08-19T14:35:50;7.65;;;3.50;;
40164;SDS011;25882;51.120;17.248;2022-08-19T14:38:17;12.98;;;4.20;;
40164;SDS011;25882;51.120;17.248;2022-08-19T14:40:44;13.05;;;4.35;;